Terminal Aerodrome Forecast
Issued by NWS St Louis, MO

Home | Current Version | Previous Version | Text Only | Print | Product List | Glossary On
Versions: 1 2 3 4 5 6 7 8 9 10 11 12 13 14 15 16 17 18 19 20
000
FTUS43 KLSX 252031 AAA
TAFCOU
TAF AMD
KCOU 252031Z 2521/2618 21008KT P6SM SCT040 BKN250
     FM260000 VRB04KT P6SM SCT120 BKN250
     FM260600 15005KT P6SM VCTS SCT040CB BKN120
     FM261500 21010KT P6SM SCT040 BKN150=

USA.gov is the U.S. government's official web portal to all federal, state and local government web resources and services.